createdAt,value
2024-05-09T00:00:59.485Z,93.40
2024-05-09T00:03:30.100Z,96.22
2024-05-09T00:06:00.951Z,86.47
2024-05-09T00:08:31.645Z,97.75
2024-05-09T00:11:03.150Z,90.00
2024-05-09T00:13:33.731Z,98.82
2024-05-09T00:16:05.648Z,100.18
2024-05-09T00:18:36.332Z,101.85
2024-05-09T00:21:10.310Z,107.22
2024-05-09T00:23:40.874Z,86.47
2024-05-09T00:26:14.615Z,103.50
2024-05-09T00:28:45.192Z,90.63
2024-05-09T00:31:15.754Z,97.00
2024-05-09T00:33:46.432Z,88.90
2024-05-09T00:36:19.977Z,94.97
2024-05-09T00:38:50.553Z,85.55
2024-05-09T00:41:21.215Z,96.53
2024-05-09T00:43:51.756Z,93.90
2024-05-09T00:46:23.400Z,93.85
2024-05-09T00:48:54.086Z,95.90
2024-05-09T00:51:26.472Z,97.43
2024-05-09T00:53:57.319Z,94.28
2024-05-09T00:56:29.890Z,96.00
2024-05-09T00:59:00.600Z,104.55
2024-05-09T01:01:33.550Z,95.32
2024-05-09T01:04:04.296Z,93.35
2024-05-09T01:06:35.055Z,90.38
2024-05-09T01:09:08.479Z,91.88
2024-05-09T01:11:44.149Z,85.55
2024-05-09T01:14:16.733Z,77.90
2024-05-09T01:16:51.020Z,84.63
2024-05-09T01:19:31.540Z,80.80
2024-05-09T01:22:02.701Z,70.43
2024-05-09T01:24:33.316Z,80.03
2024-05-09T01:27:04.694Z,84.03
2024-05-09T01:29:35.265Z,98.38
2024-05-09T01:32:07.724Z,85.35
2024-05-09T01:34:38.287Z,71.30
2024-05-09T01:37:08.873Z,79.18
2024-05-09T01:39:39.419Z,81.20
2024-05-09T01:42:10.035Z,70.05
2024-05-09T01:44:40.669Z,65.70
2024-05-09T01:47:12.169Z,77.38
2024-05-09T01:49:43.780Z,81.18
2024-05-09T01:52:14.445Z,86.05
2024-05-09T01:54:44.998Z,70.25
2024-05-09T01:57:17.925Z,84.63
2024-05-09T01:59:48.383Z,82.18
2024-05-09T02:02:22.223Z,92.22
2024-05-09T02:04:52.898Z,100.95
2024-05-09T02:07:23.637Z,93.50
2024-05-09T02:09:56.934Z,93.68
2024-05-09T02:12:27.636Z,91.25
2024-05-09T02:14:59.614Z,89.28
2024-05-09T02:17:32.103Z,84.90
2024-05-09T02:20:02.881Z,91.07
2024-05-09T02:22:36.692Z,85.38
2024-05-09T02:25:07.347Z,77.30
2024-05-09T02:27:39.286Z,78.28
2024-05-09T02:30:18.731Z,90.22
2024-05-09T02:32:58.520Z,80.18
2024-05-09T02:35:29.656Z,83.35
2024-05-09T02:38:01.320Z,82.68
2024-05-09T02:40:37.018Z,81.90
2024-05-09T02:43:19.976Z,74.78
2024-05-09T02:45:50.452Z,78.88
2024-05-09T02:48:22.162Z,73.28
2024-05-09T02:50:54.215Z,77.55
2024-05-09T02:53:24.774Z,69.38
2024-05-09T02:55:55.343Z,70.15
2024-05-09T02:58:32.096Z,76.20
2024-05-09T03:01:02.683Z,82.88
2024-05-09T03:03:33.594Z,67.57
2024-05-09T03:06:05.449Z,66.13
2024-05-09T03:08:36.172Z,63.70
2024-05-09T03:11:06.926Z,62.15
2024-05-09T03:13:37.627Z,66.97
2024-05-09T03:16:08.882Z,75.60
2024-05-09T03:18:44.563Z,82.60
2024-05-09T03:21:15.151Z,73.25
2024-05-09T03:23:46.391Z,74.30
2024-05-09T03:26:18.832Z,79.95
2024-05-09T03:28:49.659Z,84.57
2024-05-09T03:31:24.849Z,70.60
2024-05-09T03:33:56.175Z,86.43
2024-05-09T03:36:26.691Z,78.28
2024-05-09T03:38:59.618Z,78.38
2024-05-09T03:41:30.260Z,86.15
2024-05-09T03:44:06.763Z,81.80
2024-05-09T03:46:44.124Z,76.65
2024-05-09T03:49:15.744Z,74.22
2024-05-09T03:51:46.453Z,80.00
2024-05-09T03:54:18.038Z,87.88
2024-05-09T03:56:48.620Z,93.75
2024-05-09T03:59:20.068Z,86.65
2024-05-09T04:01:51.246Z,93.80
2024-05-09T04:04:31.479Z,83.45
2024-05-09T04:07:01.966Z,97.28
2024-05-09T04:09:33.539Z,99.03
2024-05-09T04:12:04.202Z,92.47
2024-05-09T04:14:38.811Z,88.68
2024-05-09T04:17:14.877Z,85.43
2024-05-09T04:19:49.574Z,93.03
2024-05-09T04:22:20.208Z,91.28
2024-05-09T04:24:50.969Z,89.10
2024-05-09T04:27:21.658Z,89.93
2024-05-09T04:29:52.800Z,91.60
2024-05-09T04:32:23.440Z,100.72
2024-05-09T04:34:54.274Z,91.10
2024-05-09T04:37:25.213Z,93.80
2024-05-09T04:40:01.171Z,102.80
2024-05-09T04:42:31.950Z,82.30
2024-05-09T04:45:02.566Z,95.43
2024-05-09T04:47:33.099Z,95.63
2024-05-09T04:50:08.815Z,95.13
2024-05-09T04:52:42.030Z,81.80
2024-05-09T04:55:12.941Z,78.45
2024-05-09T04:57:43.435Z,77.70
2024-05-09T05:00:21.750Z,89.32
2024-05-09T05:02:59.464Z,86.78
2024-05-09T05:05:34.877Z,90.43
2024-05-09T05:08:05.592Z,91.05
2024-05-09T05:10:45.622Z,90.18
2024-05-09T05:13:26.109Z,89.65
2024-05-09T05:15:59.741Z,83.38
2024-05-09T05:18:32.423Z,77.25
2024-05-09T05:21:03.484Z,80.03
2024-05-09T05:23:34.215Z,59.97
2024-05-09T05:26:04.772Z,65.60
2024-05-09T05:28:35.427Z,62.72
2024-05-09T05:31:09.944Z,51.75
2024-05-09T05:33:40.772Z,43.08
2024-05-09T05:36:12.387Z,35.33
2024-05-09T05:38:43.066Z,39.55
2024-05-09T05:41:13.782Z,34.20
2024-05-09T05:43:44.547Z,46.05
2024-05-09T05:46:15.191Z,36.60
2024-05-09T05:48:45.946Z,33.22
2024-05-09T05:51:16.683Z,34.75
2024-05-09T05:53:47.352Z,37.40
2024-05-09T05:56:23.298Z,32.58
2024-05-09T05:58:53.915Z,33.50
2024-05-09T06:01:24.487Z,36.33
2024-05-09T06:03:55.829Z,31.52
2024-05-09T06:06:27.268Z,31.75
2024-05-09T06:08:58.215Z,33.90
2024-05-09T06:11:28.961Z,37.70
2024-05-09T06:14:03.568Z,32.63
2024-05-09T06:16:34.871Z,36.17
2024-05-09T06:19:05.502Z,30.42
2024-05-09T06:21:37.005Z,32.95
2024-05-09T06:24:07.926Z,34.28
2024-05-09T06:26:39.342Z,34.47
2024-05-09T06:29:10.357Z,33.13
2024-05-09T06:31:47.873Z,31.88
2024-05-09T06:34:21.776Z,33.42
2024-05-09T06:36:52.436Z,38.22
2024-05-09T06:39:22.949Z,43.75
2024-05-09T06:41:54.041Z,36.80
2024-05-09T06:44:29.061Z,43.85
2024-05-09T06:47:00.567Z,37.17
2024-05-09T06:49:32.125Z,46.75
2024-05-09T06:52:02.899Z,33.67
2024-05-09T06:54:33.498Z,36.22
2024-05-09T06:57:04.270Z,40.80
2024-05-09T06:59:34.989Z,41.65
2024-05-09T07:02:09.990Z,33.47
2024-05-09T07:04:40.695Z,46.95
2024-05-09T07:07:11.597Z,40.50
2024-05-09T07:09:42.047Z,38.38
2024-05-09T07:12:17.031Z,40.90
2024-05-09T07:14:49.385Z,29.92
2024-05-09T07:17:22.150Z,35.97
2024-05-09T07:19:53.723Z,35.88
2024-05-09T07:22:31.168Z,31.42
2024-05-09T07:25:01.842Z,29.88
2024-05-09T07:27:32.402Z,25.20
2024-05-09T07:30:05.422Z,32.10
2024-05-09T07:32:36.191Z,32.13
2024-05-09T07:35:06.846Z,29.17
2024-05-09T07:37:38.165Z,26.08
2024-05-09T07:40:12.074Z,22.85
2024-05-09T07:42:45.358Z,28.77
2024-05-09T07:45:38.937Z,21.20
2024-05-09T07:53:37.948Z,23.95
2024-05-09T07:56:08.680Z,19.70
2024-05-09T07:58:40.231Z,18.92
2024-05-09T08:01:10.846Z,21.02
2024-05-09T08:03:41.867Z,27.80
2024-05-09T08:06:12.562Z,25.08
2024-05-09T08:08:43.293Z,27.85
2024-05-09T08:11:13.939Z,27.33
2024-05-09T08:13:47.812Z,24.50
2024-05-09T08:16:19.606Z,27.60
2024-05-09T08:18:55.450Z,21.27
2024-05-09T08:21:27.018Z,19.90
2024-05-09T08:23:58.599Z,26.33
2024-05-09T08:26:29.324Z,24.52
2024-05-09T08:29:00.020Z,25.20
2024-05-09T08:31:30.581Z,24.55
2024-05-09T08:34:03.788Z,19.23
2024-05-09T08:36:34.729Z,19.05
2024-05-09T08:39:11.104Z,30.08
2024-05-09T08:41:47.811Z,25.23
2024-05-09T08:44:23.621Z,26.85
2024-05-09T08:46:58.912Z,24.70
2024-05-09T08:49:37.667Z,30.48
2024-05-09T08:52:16.510Z,22.57
2024-05-09T08:54:52.302Z,35.00
2024-05-09T08:57:24.911Z,36.10
2024-05-09T08:59:57.141Z,32.38
2024-05-09T09:02:28.212Z,41.63
2024-05-09T09:05:21.819Z,33.83
2024-05-09T09:07:53.840Z,28.13
2024-05-09T09:10:31.628Z,38.35
2024-05-09T09:13:06.613Z,34.13
2024-05-09T09:15:44.384Z,37.67
2024-05-09T09:18:18.502Z,40.20
2024-05-09T09:20:58.423Z,44.72
2024-05-09T09:23:32.226Z,36.38
2024-05-09T09:26:03.408Z,33.30
2024-05-09T09:28:38.628Z,32.83
2024-05-09T09:31:11.513Z,29.67
2024-05-09T09:33:45.967Z,31.27
2024-05-09T09:36:16.691Z,27.45
2024-05-09T09:38:48.937Z,31.08
2024-05-09T09:41:22.313Z,30.40
2024-05-09T09:43:53.456Z,30.25
2024-05-09T09:46:30.179Z,30.60
2024-05-09T09:49:03.539Z,25.75
2024-05-09T09:51:36.544Z,31.35
2024-05-09T09:54:08.693Z,33.47
2024-05-09T09:56:43.283Z,35.92
2024-05-09T09:59:16.573Z,32.80
2024-05-09T10:01:50.549Z,35.22
2024-05-09T10:04:21.857Z,36.55
2024-05-09T10:07:00.707Z,46.00
2024-05-09T10:09:31.775Z,30.65
2024-05-09T10:12:19.616Z,36.20
2024-05-09T10:14:59.773Z,33.95
2024-05-09T10:17:30.740Z,39.67
2024-05-09T10:20:18.454Z,41.83
2024-05-09T10:22:55.908Z,40.33
2024-05-09T10:25:29.822Z,43.17
2024-05-09T10:28:06.986Z,36.70
2024-05-09T10:30:38.170Z,34.70
2024-05-09T10:33:13.615Z,38.42
2024-05-09T10:35:54.296Z,37.55
2024-05-09T10:38:24.972Z,36.97
2024-05-09T10:41:01.388Z,30.70
2024-05-09T10:43:34.430Z,45.92
2024-05-09T10:46:05.085Z,32.63
2024-05-09T10:48:37.972Z,37.90
2024-05-09T10:51:08.777Z,35.00
2024-05-09T10:53:51.117Z,35.22
2024-05-09T10:56:21.755Z,30.35
2024-05-09T10:58:55.361Z,36.00
2024-05-09T11:01:26.548Z,33.28
2024-05-09T11:04:01.542Z,33.83
2024-05-09T11:06:32.584Z,38.13
2024-05-09T11:09:04.009Z,36.20
2024-05-09T11:11:35.679Z,45.90
2024-05-09T11:14:17.905Z,52.38
2024-05-09T11:17:02.427Z,45.80
2024-05-09T11:19:55.249Z,48.25
2024-05-09T11:22:29.844Z,48.35
2024-05-09T11:25:01.230Z,46.13
2024-05-09T11:27:31.791Z,56.40
2024-05-09T11:30:04.495Z,50.13
2024-05-09T11:32:39.956Z,60.95
2024-05-09T11:35:11.609Z,54.08
2024-05-09T11:37:47.584Z,72.45
2024-05-09T11:40:28.267Z,55.10
2024-05-09T11:43:02.995Z,54.15
2024-05-09T11:45:33.737Z,48.90
2024-05-09T11:48:06.211Z,64.38
2024-05-09T11:50:40.850Z,51.88
2024-05-09T11:53:13.889Z,49.22
2024-05-09T11:55:48.987Z,51.90
2024-05-09T11:58:19.750Z,44.63
2024-05-09T12:00:51.201Z,45.25
2024-05-09T12:03:22.881Z,46.75
2024-05-09T12:05:55.411Z,50.70
2024-05-09T12:08:28.570Z,47.70
2024-05-09T12:10:59.391Z,56.83
2024-05-09T12:13:30.999Z,73.53
2024-05-09T12:16:02.390Z,67.28
2024-05-09T12:18:36.125Z,61.17
2024-05-09T12:21:07.038Z,54.25
2024-05-09T12:23:38.623Z,51.60
2024-05-09T12:26:10.163Z,75.68
2024-05-09T12:28:40.826Z,67.00
2024-05-09T12:31:12.280Z,66.00
2024-05-09T12:33:42.849Z,66.03
2024-05-09T12:36:14.282Z,70.50
2024-05-09T12:38:44.875Z,60.95
2024-05-09T12:41:16.735Z,65.03
2024-05-09T12:43:47.776Z,63.40
2024-05-09T12:46:18.530Z,69.85
2024-05-09T12:48:50.318Z,64.53
2024-05-09T12:51:21.446Z,64.57
2024-05-09T12:53:54.942Z,68.20
2024-05-09T12:56:28.243Z,67.93
2024-05-09T12:59:11.751Z,75.30
2024-05-09T13:01:43.361Z,62.65
2024-05-09T13:04:14.022Z,61.10
2024-05-09T13:06:47.408Z,60.10
2024-05-09T13:09:18.052Z,59.92
2024-05-09T13:11:49.915Z,63.45
2024-05-09T13:14:21.640Z,60.28
2024-05-09T13:16:56.254Z,57.03
2024-05-09T13:19:27.078Z,73.22
2024-05-09T13:21:58.058Z,62.70
2024-05-09T13:24:28.799Z,75.05
2024-05-09T13:26:59.536Z,72.15
2024-05-09T13:29:30.240Z,68.13
2024-05-09T13:32:00.906Z,71.03
2024-05-09T13:35:13.630Z,85.30
2024-05-09T13:37:48.216Z,79.88
2024-05-09T13:40:31.761Z,76.68
2024-05-09T13:43:07.891Z,75.47
2024-05-09T13:45:38.492Z,89.07
2024-05-09T13:48:14.137Z,75.50
2024-05-09T13:50:45.017Z,101.22
2024-05-09T13:53:15.672Z,80.07
2024-05-09T13:55:46.274Z,79.55
2024-05-09T13:58:16.977Z,69.43
2024-05-09T14:00:49.649Z,61.90
2024-05-09T14:03:21.813Z,66.93
2024-05-09T14:05:52.984Z,74.47
2024-05-09T14:08:26.996Z,66.65
2024-05-09T14:11:04.939Z,69.03
2024-05-09T14:13:39.799Z,76.63
2024-05-09T14:16:12.463Z,69.03
2024-05-09T14:18:46.841Z,74.95
2024-05-09T14:21:23.643Z,73.00
2024-05-09T14:23:57.662Z,68.55
2024-05-09T14:26:28.287Z,67.70
2024-05-09T14:28:58.876Z,68.90
2024-05-09T14:31:29.520Z,64.18
2024-05-09T14:34:04.734Z,72.55
2024-05-09T14:36:36.563Z,74.75
2024-05-09T14:39:08.821Z,81.97
2024-05-09T14:41:41.134Z,76.78
2024-05-09T14:44:14.728Z,87.85
2024-05-09T14:46:45.567Z,86.28
2024-05-09T14:49:19.354Z,76.53
2024-05-09T14:51:50.766Z,78.28
2024-05-09T14:54:21.304Z,67.47
2024-05-09T14:56:52.047Z,72.07
2024-05-09T14:59:23.462Z,82.03
2024-05-09T15:01:54.030Z,75.60
2024-05-09T15:04:27.690Z,73.25
2024-05-09T15:06:58.790Z,71.82
2024-05-09T15:09:30.260Z,75.18
2024-05-09T15:12:00.738Z,70.85
2024-05-09T15:14:37.788Z,68.18
2024-05-09T15:17:08.442Z,67.25
2024-05-09T15:19:42.484Z,72.32
2024-05-09T15:22:18.529Z,62.63
2024-05-09T15:24:50.128Z,67.68
2024-05-09T15:27:21.663Z,64.80
2024-05-09T15:29:52.152Z,68.93
2024-05-09T15:32:22.753Z,57.50
2024-05-09T15:34:53.336Z,70.65
2024-05-09T15:37:24.658Z,74.18
2024-05-09T15:39:56.313Z,67.00
2024-05-09T15:42:28.107Z,70.85
2024-05-09T15:44:58.617Z,72.40
2024-05-09T15:47:35.445Z,68.15
2024-05-09T15:50:14.754Z,69.80
2024-05-09T15:52:54.346Z,71.95
2024-05-09T15:55:26.899Z,67.25
2024-05-09T15:58:02.763Z,66.80
2024-05-09T16:00:39.477Z,65.95
2024-05-09T16:03:15.927Z,52.03
2024-05-09T16:05:48.324Z,57.65
2024-05-09T16:08:21.587Z,55.10
2024-05-09T16:10:52.394Z,57.58
2024-05-09T16:13:31.610Z,59.67
2024-05-09T16:16:08.990Z,74.77
2024-05-09T16:18:41.065Z,54.92
2024-05-09T16:21:15.314Z,50.22
2024-05-09T16:23:45.770Z,58.90
2024-05-09T16:26:19.404Z,47.08
2024-05-09T16:28:50.691Z,45.50
2024-05-09T16:31:21.219Z,49.90
2024-05-09T16:33:51.846Z,41.63
2024-05-09T16:36:23.351Z,44.67
2024-05-09T16:38:53.743Z,42.42
2024-05-09T16:41:26.514Z,37.45
2024-05-09T16:43:57.183Z,42.10
2024-05-09T16:46:30.163Z,41.45
2024-05-09T16:49:00.755Z,40.72
2024-05-09T16:51:31.293Z,44.45
2024-05-09T16:54:01.723Z,45.13
2024-05-09T16:56:33.078Z,42.67
2024-05-09T16:59:03.574Z,42.67
2024-05-09T17:01:37.650Z,38.40
2024-05-09T17:04:08.449Z,45.53
2024-05-09T17:06:39.195Z,43.30
2024-05-09T17:09:11.993Z,43.53
2024-05-09T17:11:48.233Z,48.17
2024-05-09T17:14:21.122Z,48.58
2024-05-09T17:16:53.119Z,48.38
2024-05-09T17:19:23.732Z,45.63
2024-05-09T17:21:54.535Z,39.38
2024-05-09T17:24:24.925Z,45.72
2024-05-09T17:26:55.372Z,42.88
2024-05-09T17:29:25.980Z,54.60
2024-05-09T17:31:57.199Z,49.63
2024-05-09T17:34:28.331Z,51.08
2024-05-09T17:36:59.762Z,54.92
2024-05-09T17:39:30.302Z,53.97
2024-05-09T17:42:02.493Z,47.90
2024-05-09T17:44:32.842Z,50.47
2024-05-09T17:47:04.168Z,51.75
2024-05-09T17:49:34.683Z,50.70
2024-05-09T17:52:05.225Z,58.25
2024-05-09T17:54:35.630Z,50.58
2024-05-09T17:57:06.087Z,65.90
2024-05-09T17:59:36.443Z,57.45
2024-05-09T18:02:07.028Z,58.00
2024-05-09T18:04:37.538Z,60.25
2024-05-09T18:07:08.243Z,63.50
2024-05-09T18:09:38.727Z,69.75
2024-05-09T18:12:09.862Z,62.35
2024-05-09T18:14:40.775Z,63.85
2024-05-09T18:17:15.504Z,67.50
2024-05-09T18:19:46.019Z,63.30
2024-05-09T18:22:16.567Z,73.30
2024-05-09T18:24:47.188Z,62.67
2024-05-09T18:27:17.677Z,65.25
2024-05-09T18:29:48.591Z,61.85
2024-05-09T18:32:19.052Z,64.32
2024-05-09T18:34:50.384Z,71.05
2024-05-09T18:37:20.856Z,80.60
2024-05-09T18:39:52.135Z,69.40
2024-05-09T18:42:22.528Z,66.57
2024-05-09T18:44:56.947Z,53.83
2024-05-09T18:47:27.532Z,70.20
2024-05-09T18:49:58.850Z,60.25
2024-05-09T18:52:29.249Z,67.78
2024-05-09T18:55:01.945Z,56.30
2024-05-09T18:57:32.532Z,56.28
2024-05-09T19:00:04.209Z,60.67
2024-05-09T19:02:36.012Z,53.25
2024-05-09T19:05:06.888Z,48.58
2024-05-09T19:07:37.447Z,61.13
2024-05-09T19:10:21.514Z,58.28
2024-05-09T19:12:53.224Z,53.47
2024-05-09T19:15:24.621Z,54.92
2024-05-09T19:17:58.089Z,53.25
2024-05-09T19:20:33.658Z,52.65
2024-05-09T19:23:06.773Z,62.97
2024-05-09T19:25:38.125Z,53.38
2024-05-09T19:28:09.018Z,50.58
2024-05-09T19:30:42.374Z,51.60
2024-05-09T19:33:14.855Z,36.55
2024-05-09T19:35:45.999Z,37.17
2024-05-09T19:38:16.477Z,38.38
2024-05-09T19:40:47.227Z,37.33
2024-05-09T19:43:18.261Z,42.00
2024-05-09T19:45:49.193Z,38.30
2024-05-09T19:48:19.916Z,34.50
2024-05-09T19:50:53.102Z,34.05
2024-05-09T19:53:23.807Z,40.90
2024-05-09T19:55:54.225Z,40.63
2024-05-09T19:58:24.784Z,44.47
2024-05-09T20:00:55.321Z,40.22
2024-05-09T20:03:26.726Z,41.13
2024-05-09T20:05:57.106Z,29.45
2024-05-09T20:08:27.498Z,25.83
2024-05-09T20:10:58.730Z,18.08
2024-05-09T20:13:29.194Z,16.17
2024-05-09T20:16:03.399Z,19.00
2024-05-09T20:18:39.015Z,14.05
2024-05-09T20:21:09.625Z,14.93
2024-05-09T20:23:40.007Z,13.75
2024-05-09T20:26:11.194Z,14.48
2024-05-09T20:28:42.441Z,13.77
2024-05-09T20:31:12.866Z,16.77
2024-05-09T20:33:43.395Z,14.13
2024-05-09T20:36:13.871Z,16.00
2024-05-09T20:38:44.472Z,13.27
2024-05-09T20:41:14.871Z,15.30
2024-05-09T20:43:51.894Z,16.92
2024-05-09T20:46:22.405Z,16.00
2024-05-09T20:48:53.747Z,17.27
2024-05-09T20:51:24.214Z,17.73
2024-05-09T20:53:55.363Z,20.20
2024-05-09T20:56:26.136Z,17.50
2024-05-09T20:58:57.296Z,19.67
2024-05-09T21:01:27.855Z,18.73
2024-05-09T21:03:58.512Z,18.27
2024-05-09T21:06:28.983Z,23.35
2024-05-09T21:09:01.462Z,21.50
2024-05-09T21:11:31.929Z,24.42
2024-05-09T21:14:02.958Z,24.45
2024-05-09T21:16:36.140Z,22.83
2024-05-09T21:19:06.702Z,25.00
2024-05-09T21:21:44.140Z,25.40
2024-05-09T21:24:14.758Z,25.83
2024-05-09T21:26:51.594Z,28.98
2024-05-09T21:29:22.891Z,30.80
2024-05-09T21:31:53.367Z,35.78
2024-05-09T21:34:24.772Z,39.28
2024-05-09T21:36:55.269Z,39.75
2024-05-09T21:39:28.477Z,40.63
2024-05-09T21:42:03.705Z,35.67
2024-05-09T21:44:35.061Z,33.72
2024-05-09T21:47:05.716Z,29.92
2024-05-09T21:49:36.340Z,33.00
2024-05-09T21:52:07.190Z,34.92
2024-05-09T21:54:37.805Z,35.80
2024-05-09T21:57:09.906Z,37.60
2024-05-09T21:59:42.471Z,40.60
2024-05-09T22:02:14.771Z,43.25
2024-05-09T22:04:45.429Z,44.03
2024-05-09T22:07:16.160Z,47.40
2024-05-09T22:09:51.994Z,38.72
2024-05-09T22:12:22.421Z,36.55
2024-05-09T22:14:55.910Z,37.47
2024-05-09T22:17:28.513Z,38.58
2024-05-09T22:19:59.110Z,35.83
2024-05-09T22:22:29.499Z,40.35
2024-05-09T22:25:00.007Z,34.92
2024-05-09T22:27:30.584Z,35.28
2024-05-09T22:30:05.218Z,37.28
2024-05-09T22:32:37.426Z,37.83
2024-05-09T22:35:10.885Z,35.40
2024-05-09T22:37:41.400Z,38.80
2024-05-09T22:40:23.861Z,34.00
2024-05-09T22:42:59.578Z,36.88
2024-05-09T22:45:30.797Z,39.72
2024-05-09T22:48:01.528Z,34.72
2024-05-09T22:50:34.022Z,40.15
2024-05-09T22:53:04.588Z,35.92
2024-05-09T22:55:35.272Z,38.13
2024-05-09T22:58:05.722Z,40.70
2024-05-09T23:00:37.380Z,39.45
2024-05-09T23:03:08.373Z,40.47
2024-05-09T23:05:39.693Z,37.03
2024-05-09T23:08:10.871Z,45.83
2024-05-09T23:10:42.992Z,39.33
2024-05-09T23:13:13.503Z,40.35
2024-05-09T23:15:44.512Z,41.50
2024-05-09T23:18:15.408Z,38.90
2024-05-09T23:20:46.939Z,39.25
2024-05-09T23:23:17.399Z,42.10
2024-05-09T23:25:49.510Z,42.90
2024-05-09T23:28:19.919Z,39.47
2024-05-09T23:30:53.654Z,44.30
2024-05-09T23:33:27.883Z,41.00
2024-05-09T23:36:03.815Z,39.63
2024-05-09T23:38:34.267Z,38.00
2024-05-09T23:41:04.816Z,36.17
2024-05-09T23:43:35.660Z,30.55
2024-05-09T23:46:06.355Z,32.00
2024-05-09T23:48:37.100Z,33.25
2024-05-09T23:51:07.763Z,32.78
2024-05-09T23:53:38.168Z,29.58
2024-05-09T23:56:09.210Z,29.70
2024-05-09T23:58:39.571Z,38.08
